createdAt,value
2023-04-10T00:01:22.297Z,102181.34
2023-04-10T00:04:24.929Z,102182.41
2023-04-10T00:07:27.759Z,102173.53
2023-04-10T00:10:30.793Z,102178.84
2023-04-10T00:13:34.781Z,102177.03
2023-04-10T00:16:37.421Z,102167.38
2023-04-10T00:19:40.483Z,102163.13
2023-04-10T00:22:43.053Z,102160.50
2023-04-10T00:25:45.637Z,102143.16
2023-04-10T00:28:49.562Z,102138.53
2023-04-10T00:31:52.179Z,102140.34
2023-04-10T00:34:55.011Z,102145.50
2023-04-10T00:37:57.783Z,102143.75
2023-04-10T00:41:00.668Z,102143.75
2023-04-10T00:44:04.673Z,102136.81
2023-04-10T00:47:07.506Z,102138.56
2023-04-10T00:50:11.014Z,102131.47
2023-04-10T00:53:13.670Z,102132.31
2023-04-10T00:56:16.388Z,102135.97
2023-04-10T00:59:20.698Z,102135.94
2023-04-10T01:02:23.474Z,102141.22
2023-04-10T01:05:32.872Z,102134.25
2023-04-10T01:08:46.652Z,102127.00
2023-04-10T01:11:54.828Z,102142.09
2023-04-10T01:15:05.873Z,102135.06
2023-04-10T01:18:15.654Z,102131.47
2023-04-10T01:21:18.789Z,102142.97
2023-04-10T01:24:41.664Z,102142.03
2023-04-10T01:27:52.163Z,102132.50
2023-04-10T01:31:00.488Z,102131.66
2023-04-10T01:34:08.254Z,102128.19
2023-04-10T01:37:16.840Z,102126.44
2023-04-10T01:40:22.069Z,102122.84
2023-04-10T01:43:27.303Z,102124.56
2023-04-10T01:46:33.501Z,102125.56
2023-04-10T01:49:42.438Z,102119.41
2023-04-10T01:52:46.292Z,102125.56
2023-04-10T01:55:49.354Z,102122.13
2023-04-10T01:58:52.173Z,102110.69
2023-04-10T02:01:58.683Z,102109.78
2023-04-10T02:05:01.834Z,102099.19
2023-04-10T02:08:13.713Z,102103.63
2023-04-10T02:11:24.241Z,102108.84
2023-04-10T02:14:29.349Z,102093.06
2023-04-10T02:17:35.716Z,102089.56
2023-04-10T02:20:38.825Z,102083.50
2023-04-10T02:23:41.493Z,102080.06
2023-04-10T02:26:47.788Z,102075.53
2023-04-10T02:29:51.482Z,102063.22
2023-04-10T02:32:55.828Z,102072.78
2023-04-10T02:35:58.466Z,102070.31
2023-04-10T02:39:01.090Z,102064.91
2023-04-10T02:42:03.870Z,102066.56
2023-04-10T02:45:07.904Z,102059.47
2023-04-10T02:48:12.003Z,102057.75
2023-04-10T02:51:14.749Z,102060.56
2023-04-10T02:54:17.326Z,102070.06
2023-04-10T02:57:19.933Z,102063.09
2023-04-10T03:00:23.481Z,102057.94
2023-04-10T03:03:27.674Z,102050.78
2023-04-10T03:06:30.554Z,102051.63
2023-04-10T03:09:33.123Z,102044.59
2023-04-10T03:12:35.764Z,102040.19
2023-04-10T03:15:38.984Z,102031.41
2023-04-10T03:18:43.057Z,102025.22
2023-04-10T03:21:47.132Z,102032.47
2023-04-10T03:24:49.733Z,102021.00
2023-04-10T03:27:53.089Z,102021.78
2023-04-10T03:30:55.651Z,102020.84
2023-04-10T03:33:59.667Z,102029.00
2023-04-10T03:37:03.070Z,102022.84
2023-04-10T03:40:08.167Z,102015.53
2023-04-10T03:43:10.864Z,102019.03
2023-04-10T03:46:13.473Z,102020.91
2023-04-10T03:49:17.516Z,102007.78
2023-04-10T03:52:20.350Z,101999.00
2023-04-10T03:55:22.983Z,102000.81
2023-04-10T03:58:25.648Z,102003.66
2023-04-10T04:01:28.376Z,101997.25
2023-04-10T04:04:32.367Z,102002.50
2023-04-10T04:07:35.099Z,101997.16
2023-04-10T04:10:37.712Z,102001.56
2023-04-10T04:13:40.283Z,101996.28
2023-04-10T04:16:43.200Z,101994.66
2023-04-10T04:19:47.162Z,102001.66
2023-04-10T04:22:49.760Z,101999.22
2023-04-10T04:25:54.258Z,101996.59
2023-04-10T04:28:56.843Z,101994.84
2023-04-10T04:31:59.465Z,101998.41
2023-04-10T04:35:03.534Z,101999.25
2023-04-10T04:38:06.111Z,102000.97
2023-04-10T04:41:08.730Z,102003.69
2023-04-10T04:44:11.362Z,102004.59
2023-04-10T04:47:13.969Z,102004.59
2023-04-10T04:50:18.106Z,101994.91
2023-04-10T04:53:20.968Z,102002.84
2023-04-10T04:56:23.617Z,102000.19
2023-04-10T04:59:26.306Z,101998.38
2023-04-10T05:02:29.048Z,102005.56
2023-04-10T05:05:33.138Z,101998.47
2023-04-10T05:08:35.725Z,102005.50
2023-04-10T05:11:38.332Z,102008.94
2023-04-10T05:14:40.893Z,102006.38
2023-04-10T05:17:43.542Z,101996.50
2023-04-10T05:20:48.515Z,102011.47
2023-04-10T05:23:51.174Z,102008.91
2023-04-10T05:26:53.783Z,102009.63
2023-04-10T05:29:56.362Z,102008.59
2023-04-10T05:32:59.065Z,102003.38
2023-04-10T05:36:03.391Z,101999.56
2023-04-10T05:39:06.208Z,101994.25
2023-04-10T05:42:08.892Z,101995.28
2023-04-10T05:45:12.037Z,101989.91
2023-04-10T05:48:14.749Z,101994.34
2023-04-10T05:51:18.700Z,101992.47
2023-04-10T05:54:21.353Z,101986.78
2023-04-10T05:57:24.613Z,101999.06
2023-04-10T06:00:27.373Z,101979.69
2023-04-10T06:03:30.944Z,101981.31
2023-04-10T06:06:35.099Z,101985.41
2023-04-10T06:09:37.688Z,101985.50
2023-04-10T06:12:40.458Z,101987.03
2023-04-10T06:15:43.085Z,101977.19
2023-04-10T06:18:46.482Z,101974.03
2023-04-10T06:21:52.473Z,101968.59
2023-04-10T06:24:56.475Z,101961.63
2023-04-10T06:27:59.317Z,101962.34
2023-04-10T06:31:04.204Z,101945.44
2023-04-10T06:34:06.853Z,101947.44
2023-04-10T06:37:11.100Z,101943.34
2023-04-10T06:40:15.361Z,101944.09
2023-04-10T06:43:17.971Z,101941.97
2023-04-10T06:46:20.969Z,101938.19
2023-04-10T06:49:24.247Z,101932.22
2023-04-10T06:52:28.405Z,101930.28
2023-04-10T06:55:31.123Z,101930.81
2023-04-10T06:58:33.749Z,101934.38
2023-04-10T07:01:36.642Z,101938.28
2023-04-10T07:04:39.231Z,101926.28
2023-04-10T07:07:43.835Z,101927.06
2023-04-10T07:10:46.398Z,101926.66
2023-04-10T07:13:53.704Z,101923.38
2023-04-10T07:16:56.556Z,101928.00
2023-04-10T07:19:59.258Z,101929.63
2023-04-10T07:23:03.214Z,101923.19
2023-04-10T07:26:06.497Z,101924.94
2023-04-10T07:29:09.374Z,101923.53
2023-04-10T07:32:12.015Z,101924.81
2023-04-10T07:35:14.892Z,101915.56
2023-04-10T07:38:19.319Z,101911.28
2023-04-10T07:41:22.206Z,101903.22
2023-04-10T07:44:24.849Z,101905.34
2023-04-10T07:47:27.517Z,101908.66
2023-04-10T07:50:30.446Z,101904.97
2023-04-10T07:53:34.419Z,101904.53
2023-04-10T07:56:37.019Z,101904.72
2023-04-10T07:59:39.626Z,101905.72
2023-04-10T08:02:42.382Z,101905.91
2023-04-10T08:05:45.199Z,101908.16
2023-04-10T08:08:49.238Z,101911.88
2023-04-10T08:11:51.838Z,101906.69
2023-04-10T08:14:54.723Z,101898.09
2023-04-10T08:17:57.356Z,101894.66
2023-04-10T08:21:00.020Z,101893.63
2023-04-10T08:24:04.954Z,101887.31
2023-04-10T08:27:07.570Z,101882.41
2023-04-10T08:30:10.873Z,101886.63
2023-04-10T08:33:13.484Z,101871.97
2023-04-10T08:36:18.974Z,101871.53
2023-04-10T08:39:24.018Z,101877.19
2023-04-10T08:42:27.326Z,101870.38
2023-04-10T08:45:30.054Z,101864.47
2023-04-10T08:48:37.010Z,101859.69
2023-04-10T08:51:43.898Z,101855.00
2023-04-10T08:54:51.807Z,101850.06
2023-04-10T08:58:01.229Z,101852.50
2023-04-10T09:01:06.501Z,101850.63
2023-04-10T09:04:09.161Z,101835.56
2023-04-10T09:07:11.757Z,101837.44
2023-04-10T09:10:16.659Z,101829.19
2023-04-10T09:13:36.403Z,101828.41
2023-04-10T09:16:39.031Z,101820.56
2023-04-10T09:19:42.286Z,101812.81
2023-04-10T09:22:44.910Z,101801.78
2023-04-10T09:25:49.964Z,101805.25
2023-04-10T09:29:01.775Z,101807.38
2023-04-10T09:32:04.448Z,101798.81
2023-04-10T09:35:08.564Z,101792.41
2023-04-10T09:38:18.556Z,101784.41
2023-04-10T09:41:22.547Z,101781.75
2023-04-10T09:44:31.562Z,101774.19
2023-04-10T09:47:34.252Z,101772.13
2023-04-10T09:50:39.990Z,101752.69
2023-04-10T09:53:50.247Z,101746.59
2023-04-10T09:56:54.981Z,101741.38
2023-04-10T09:59:59.549Z,101738.66
2023-04-10T10:03:06.612Z,101715.53
2023-04-10T10:06:09.698Z,101717.94
2023-04-10T10:09:12.609Z,101703.75
2023-04-10T10:12:20.235Z,101701.59
2023-04-10T10:15:31.802Z,101686.06
2023-04-10T10:18:44.864Z,101675.75
2023-04-10T10:21:48.362Z,101664.66
2023-04-10T10:24:56.485Z,101674.38
2023-04-10T10:28:03.814Z,101668.31
2023-04-10T10:31:07.292Z,101664.22
2023-04-10T10:34:11.003Z,101653.41
2023-04-10T10:37:14.139Z,101651.19
2023-04-10T10:40:23.845Z,101653.13
2023-04-10T10:43:38.900Z,101647.03
2023-04-10T10:46:48.996Z,101636.06
2023-04-10T10:49:59.372Z,101626.31
2023-04-10T10:53:01.969Z,101612.91
2023-04-10T10:56:36.064Z,101613.13
2023-04-10T10:59:58.246Z,101603.34
2023-04-10T11:03:28.687Z,101603.50
2023-04-10T11:06:55.155Z,101593.16
2023-04-10T11:09:58.044Z,101580.06
2023-04-10T11:16:22.354Z,101568.88
2023-04-10T11:19:26.098Z,101564.53
2023-04-10T11:22:29.285Z,101558.25
2023-04-10T11:25:47.723Z,101565.31
2023-04-10T11:28:50.540Z,101544.00
2023-04-10T11:31:58.867Z,101544.00
2023-04-10T11:35:03.619Z,101530.31
2023-04-10T11:38:15.006Z,101518.09
2023-04-10T11:41:17.614Z,101518.72
2023-04-10T11:44:28.831Z,101506.56
2023-04-10T11:47:32.843Z,101505.88
2023-04-10T11:50:36.553Z,101495.06
2023-04-10T11:53:39.663Z,101508.13
2023-04-10T11:56:44.106Z,101485.13
2023-04-10T11:59:52.045Z,101489.03
2023-04-10T12:02:56.150Z,101487.94
2023-04-10T12:05:59.030Z,101479.47
2023-04-10T12:09:01.733Z,101478.53
2023-04-10T12:12:05.653Z,101471.34
2023-04-10T12:15:26.452Z,101461.56
2023-04-10T12:18:31.290Z,101451.97
2023-04-10T12:21:36.501Z,101453.56
2023-04-10T12:24:43.581Z,101443.44
2023-04-10T12:27:49.778Z,101436.09
2023-04-10T12:30:53.823Z,101432.66
2023-04-10T12:33:58.494Z,101424.34
2023-04-10T12:37:01.117Z,101421.81
2023-04-10T12:40:08.134Z,101432.63
2023-04-10T12:43:10.754Z,101416.63
2023-04-10T12:46:24.832Z,101425.41
2023-04-10T12:49:28.872Z,101414.59
2023-04-10T12:52:31.521Z,101401.47
2023-04-10T12:55:34.291Z,101392.81
2023-04-10T12:58:37.034Z,101394.19
2023-04-10T13:01:40.657Z,101396.47
2023-04-10T13:04:44.808Z,101388.22
2023-04-10T13:07:49.149Z,101380.41
2023-04-10T13:10:51.763Z,101365.94
2023-04-10T13:13:54.387Z,101364.41
2023-04-10T13:16:56.985Z,101364.22
2023-04-10T13:20:00.911Z,101349.00
2023-04-10T13:23:04.281Z,101344.31
2023-04-10T13:26:07.115Z,101335.72
2023-04-10T13:29:09.704Z,101339.81
2023-04-10T13:32:12.285Z,101320.84
2023-04-10T13:35:16.467Z,101309.78
2023-04-10T13:38:21.200Z,101312.13
2023-04-10T13:41:25.394Z,101300.06
2023-04-10T13:44:28.243Z,101308.75
2023-04-10T13:47:30.933Z,101304.38
2023-04-10T13:50:35.255Z,101289.03
2023-04-10T13:53:37.871Z,101284.81
2023-04-10T13:56:41.134Z,101278.88
2023-04-10T13:59:43.745Z,101271.00
2023-04-10T14:02:46.771Z,101264.53
2023-04-10T14:05:52.586Z,101260.97
2023-04-10T14:08:55.349Z,101241.91
2023-04-10T14:11:58.593Z,101238.28
2023-04-10T14:15:01.187Z,101228.66
2023-04-10T14:18:04.168Z,101217.81
2023-04-10T14:21:08.564Z,101204.47
2023-04-10T14:24:11.174Z,101200.91
2023-04-10T14:27:14.059Z,101200.41
2023-04-10T14:30:16.642Z,101193.09
2023-04-10T14:33:20.254Z,101188.78
2023-04-10T14:36:24.313Z,101184.25
2023-04-10T14:39:26.954Z,101182.94
2023-04-10T14:42:30.044Z,101168.75
2023-04-10T14:45:32.763Z,101169.63
2023-04-10T14:48:35.517Z,101152.00
2023-04-10T14:51:39.601Z,101149.84
2023-04-10T14:54:42.186Z,101134.34
2023-04-10T14:57:44.802Z,101125.75
2023-04-10T15:00:47.576Z,101120.59
2023-04-10T15:03:50.387Z,101117.59
2023-04-10T15:06:54.359Z,101099.31
2023-04-10T15:09:57.728Z,101105.13
2023-04-10T15:13:00.310Z,101084.25
2023-04-10T15:16:02.889Z,101087.13
2023-04-10T15:19:05.854Z,101067.78
2023-04-10T15:22:09.806Z,101056.69
2023-04-10T15:25:12.786Z,101056.50
2023-04-10T15:28:15.385Z,101057.25
2023-04-10T15:31:18.034Z,101041.25
2023-04-10T15:34:20.772Z,101043.69
2023-04-10T15:37:25.282Z,101022.63
2023-04-10T15:40:29.348Z,101014.56
2023-04-10T15:43:31.984Z,101024.69
2023-04-10T15:46:34.669Z,101019.72
2023-04-10T15:49:38.751Z,101005.88
2023-04-10T15:52:42.975Z,100999.13
2023-04-10T15:55:45.720Z,100989.44
2023-04-10T15:58:48.638Z,100987.94
2023-04-10T16:01:51.290Z,100987.69
2023-04-10T16:04:54.077Z,100974.19
2023-04-10T16:07:58.338Z,100977.59
2023-04-10T16:11:00.927Z,100978.94
2023-04-10T16:14:03.494Z,100958.28
2023-04-10T16:17:06.272Z,100955.69
2023-04-10T16:20:09.604Z,100942.16
2023-04-10T16:23:13.600Z,100954.72
2023-04-10T16:26:16.235Z,100936.72
2023-04-10T16:29:19.819Z,100937.56
2023-04-10T16:32:23.061Z,100935.91
2023-04-10T16:35:25.738Z,100931.25
2023-04-10T16:38:29.706Z,100916.97
2023-04-10T16:41:32.274Z,100902.97
2023-04-10T16:44:34.879Z,100902.25
2023-04-10T16:47:37.490Z,100908.44
2023-04-10T16:50:40.076Z,100902.25
2023-04-10T16:53:44.511Z,100888.72
2023-04-10T16:56:47.109Z,100892.34
2023-04-10T16:59:49.706Z,100882.06
2023-04-10T17:02:52.478Z,100873.13
2023-04-10T17:05:55.138Z,100869.19
2023-04-10T17:08:59.128Z,100861.25
2023-04-10T17:12:01.911Z,100856.47
2023-04-10T17:15:05.133Z,100845.53
2023-04-10T17:18:07.818Z,100848.97
2023-04-10T17:21:12.990Z,100835.41
2023-04-10T17:24:17.340Z,100827.13
2023-04-10T17:27:20.041Z,100832.06
2023-04-10T17:30:22.645Z,100813.53
2023-04-10T17:33:25.314Z,100815.47
2023-04-10T17:36:28.016Z,100813.59
2023-04-10T17:39:31.981Z,100819.66
2023-04-10T17:42:34.569Z,100818.94
2023-04-10T17:45:38.167Z,100822.38
2023-04-10T17:48:40.857Z,100816.28
2023-04-10T17:51:43.475Z,100803.63
2023-04-10T17:54:47.450Z,100810.06
2023-04-10T17:57:50.085Z,100805.78
2023-04-10T18:00:52.734Z,100806.81
2023-04-10T18:03:55.426Z,100805.56
2023-04-10T18:06:58.063Z,100802.25
2023-04-10T18:10:01.991Z,100790.78
2023-04-10T18:13:04.612Z,100780.00
2023-04-10T18:16:08.462Z,100778.19
2023-04-10T18:19:11.156Z,100780.84
2023-04-10T18:22:13.737Z,100778.97
2023-04-10T18:25:17.960Z,100774.53
2023-04-10T18:28:20.695Z,100768.25
2023-04-10T18:31:23.317Z,100761.56
2023-04-10T18:34:25.963Z,100766.06
2023-04-10T18:37:28.585Z,100774.84
2023-04-10T18:40:34.498Z,100767.25
2023-04-10T18:43:38.366Z,100765.25
2023-04-10T18:46:46.348Z,100760.25
2023-04-10T18:49:51.230Z,100755.06
2023-04-10T18:52:54.029Z,100750.09
2023-04-10T18:55:57.953Z,100741.53
2023-04-10T18:59:00.553Z,100744.44
2023-04-10T19:02:03.464Z,100735.09
2023-04-10T19:05:06.948Z,100729.66
2023-04-10T19:08:13.993Z,100733.38
2023-04-10T19:11:18.734Z,100719.88
2023-04-10T19:14:21.370Z,100720.84
2023-04-10T19:17:24.875Z,100719.34
2023-04-10T19:20:50.519Z,100707.50
2023-04-10T19:23:50.535Z,100686.31
2023-04-10T19:26:56.324Z,100697.09
2023-04-10T19:29:59.135Z,100698.50
2023-04-10T19:33:01.838Z,100695.16
2023-04-10T19:36:06.862Z,100694.09
2023-04-10T19:39:10.747Z,100690.88
2023-04-10T19:42:14.737Z,100663.66
2023-04-10T19:45:17.353Z,100675.59
2023-04-10T19:48:20.134Z,100666.84
2023-04-10T19:51:22.781Z,100663.56
2023-04-10T19:54:25.564Z,100669.28
2023-04-10T19:57:29.534Z,100665.38
2023-04-10T20:00:32.359Z,100651.06
2023-04-10T20:03:36.355Z,100636.75
2023-04-10T20:06:39.202Z,100633.03
2023-04-10T20:09:41.801Z,100623.69
2023-04-10T20:12:45.742Z,100622.75
2023-04-10T20:15:48.657Z,100612.06
2023-04-10T20:18:52.186Z,100607.44
2023-04-10T20:21:55.058Z,100607.81
2023-04-10T20:24:57.725Z,100594.38
2023-04-10T20:28:01.642Z,100583.59
2023-04-10T20:31:04.328Z,100568.16
2023-04-10T20:34:06.954Z,100561.84
2023-04-10T20:37:09.630Z,100555.94
2023-04-10T20:40:12.592Z,100537.34
2023-04-10T20:43:18.549Z,100537.63
2023-04-10T20:46:21.456Z,100526.88
2023-04-10T20:49:25.105Z,100526.38
2023-04-10T20:52:27.724Z,100522.16
2023-04-10T20:55:30.451Z,100515.41
2023-04-10T20:58:34.430Z,100516.38
2023-04-10T21:01:37.170Z,100510.50
2023-04-10T21:04:39.946Z,100495.72
2023-04-10T21:07:42.526Z,100497.44
2023-04-10T21:10:45.813Z,100479.34
2023-04-10T21:13:49.879Z,100481.75
2023-04-10T21:16:52.561Z,100470.28
2023-04-10T21:19:55.250Z,100457.59
2023-04-10T21:22:58.016Z,100454.84
2023-04-10T21:26:01.501Z,100442.38
2023-04-10T21:29:05.517Z,100435.59
2023-04-10T21:32:08.244Z,100435.31
2023-04-10T21:35:11.136Z,100434.59
2023-04-10T21:38:13.746Z,100441.19
2023-04-10T21:41:16.361Z,100452.56
2023-04-10T21:44:21.002Z,100453.31
2023-04-10T21:47:23.578Z,100458.38
2023-04-10T21:50:26.300Z,100455.53
2023-04-10T21:53:28.904Z,100460.75
2023-04-10T21:56:31.474Z,100463.66
2023-04-10T21:59:35.741Z,100458.16
2023-04-10T22:02:38.431Z,100459.22
2023-04-10T22:05:41.289Z,100457.22
2023-04-10T22:08:44.573Z,100459.78
2023-04-10T22:11:47.195Z,100462.22
2023-04-10T22:14:52.052Z,100486.28
2023-04-10T22:17:54.633Z,100477.31
2023-04-10T22:20:57.245Z,100481.06
2023-04-10T22:23:59.852Z,100485.50
2023-04-10T22:27:02.456Z,100476.97
2023-04-10T22:30:09.603Z,100473.41
2023-04-10T22:33:12.787Z,100469.44
2023-04-10T22:36:15.382Z,100472.06
2023-04-10T22:39:17.982Z,100462.91
2023-04-10T22:42:20.569Z,100465.25
2023-04-10T22:45:24.495Z,100465.56
2023-04-10T22:48:27.102Z,100454.81
2023-04-10T22:51:29.838Z,100453.81
2023-04-10T22:54:32.483Z,100448.59
2023-04-10T22:57:35.244Z,100435.44
2023-04-10T23:00:39.202Z,100424.88
2023-04-10T23:03:41.906Z,100428.25
2023-04-10T23:06:44.485Z,100431.66
2023-04-10T23:09:47.065Z,100431.94
2023-04-10T23:12:49.708Z,100429.81
2023-04-10T23:15:55.026Z,100423.06
2023-04-10T23:18:57.660Z,100422.25
2023-04-10T23:22:00.423Z,100419.50
2023-04-10T23:25:02.994Z,100406.84
2023-04-10T23:28:06.012Z,100400.59
2023-04-10T23:31:10.331Z,100396.53
2023-04-10T23:34:12.976Z,100397.34
2023-04-10T23:37:15.566Z,100383.59
2023-04-10T23:40:19.000Z,100380.25
2023-04-10T23:43:21.640Z,100377.41
2023-04-10T23:46:25.631Z,100363.75
2023-04-10T23:49:28.266Z,100365.22
2023-04-10T23:52:30.876Z,100355.47
2023-04-10T23:55:33.449Z,100356.88
2023-04-10T23:58:36.047Z,100348.78
